Página principal
METAR-TAF:

METAR-TAF

Aeroportos :

Base aérea

Morón de la Frontera, Espanha

latitude: 37-09N, longitude: 005-37W, altura: 87 m

Observação actual do tempo

O boletim foi feito há 19 minutos, às 11:00 UTC
Vento 7 kt de sudeste, variando entre es-nordeste e sul
Temperatura 34°C
Humidade 26%
Pressão 1015 hPa
Visibilidade 10 km ou mais
sem nuvens abaixo de 1500 metros e sem cumulonimbus

METAR: LEMO 191100Z 13007KT 070V190 CAVOK 34/12 Q1015 NOSIG

Hora: 13:19 (11:19 UTC)

Previsão

O boletim foi feito há 3 horas e 19 minutos, às 08:00 UTC
Previsão válida de 19 às 09 UTC a 19 às 18 UTC
Vento 9 kt de este
Visibilidade 10 km ou mais
sem nuvens abaixo de 1500 metros e sem cumulonimbus

TAF: LEMO 190800Z 1909/1918 09009KT CAVOK

Observações e previsões do tempo de mais de 4000 aeroportos (mensagens METAR e TAF).

As estações disponíveis são os pontos amarelos e vermelhos sobre o mapa.

Mova o rato sobre o mapa para ver o nome da estação.

Depois clique no ponto para visualizar as observações e previsões meteorológicas.

Para alterar o mapa : clique nos botões verdes com uma cruz preta para aumentar o zoom; no botão verde com uma pitada de zoom; ou nas setas verdes para mapas adjacentes.


METAR-TAF: